Time;durP1;ratioP1;P1;durP2;ratioP2;P2;SDS_P1;SDS_P2;PMS_P1;PMS_P2;Temp;Humidity;BMP_temperature;BMP_pressure;BME280_temperature;BME280_humidity;BME280_pressure;Samples;Min_cycle;Max_cycle;Signal;HPM_P1;HPM_P2
2022/09/16 13:09:38;;;;;;;3.15;0.82;;;;;;;27.44;26.98;97928.49;1818616;79;23002;-43
2022/09/16 13:12:23;;;;;;;3.70;0.90;;;;;;;27.43;26.88;97928.72;1792380;80;21047;-44
2022/09/16 13:14:54;;;;;;;3.30;1.10;;;;;;;28.16;26.80;97931.80;1791803;80;20979;-45
2022/09/16 13:17:36;;;;;;;1.40;0.85;;;;;;;28.83;26.60;97938.80;1791682;80;20975;-43
2022/09/16 13:20:16;;;;;;;2.70;0.70;;;;;;;28.43;24.65;97932.70;1791984;80;20991;-42
2022/09/16 13:22:56;;;;;;;1.30;0.68;;;;;;;28.12;26.65;97931.94;1792535;80;20987;-42
2022/09/16 13:25:30;;;;;;;1.90;0.90;;;;;;;28.04;26.89;97927.70;1792461;80;21003;-42
2022/09/16 13:28:24;;;;;;;1.47;0.80;;;;;;;27.11;27.60;97926.98;1791607;80;21460;-41
2022/09/16 13:30:50;;;;;;;3.22;0.80;;;;;;;26.66;27.75;97930.46;1792324;80;21030;-44
2022/09/16 13:33:25;;;;;;;1.27;0.73;;;;;;;26.93;27.77;97916.19;1792225;80;21613;-44
2022/09/16 13:36:05;;;;;;;1.07;0.70;;;;;;;27.32;26.49;97914.10;1786810;80;20975;-44
2022/09/16 13:38:38;;;;;;;1.40;0.90;;;;;;;27.53;26.61;97918.20;1760583;80;21025;-41
2022/09/16 13:41:04;;;;;;;5.15;1.00;;;;;;;26.83;26.81;97925.31;1791724;80;21445;-43
2022/09/16 13:43:47;;;;;;;1.65;0.80;;;;;;;26.36;27.94;97924.34;1792115;80;21630;-43
2022/09/16 13:46:34;;;;;;;2.20;0.90;;;;;;;26.22;27.99;97930.38;1791866;80;21010;-42
2022/09/16 13:49:21;;;;;;;1.92;0.78;;;;;;;24.53;30.12;97921.79;1791874;80;21449;-42
2022/09/16 13:51:49;;;;;;;1.12;0.70;;;;;;;22.95;33.07;97920.59;1790748;80;21022;-42
2022/09/16 13:54:31;;;;;;;1.75;1.12;;;;;;;22.30;33.58;97925.80;1791960;80;20995;-41
2022/09/16 13:57:24;;;;;;;3.60;1.10;;;;;;;21.87;34.45;97925.30;1791794;80;20959;-43
2022/09/16 14:00:04;;;;;;;1.75;1.00;;;;;;;21.17;35.15;97918.69;1791792;80;20971;-40
2022/09/16 14:03:05;;;;;;;2.47;1.30;;;;;;;20.46;37.70;97928.44;1792632;80;20947;-40
2022/09/16 14:06:02;;;;;;;2.75;1.20;;;;;;;19.86;39.56;97919.42;1725470;83;21631;-41
2022/09/16 14:08:59;;;;;;;1.77;1.07;;;;;;;19.61;38.31;97929.38;1686380;84;21490;-42
2022/09/16 14:11:42;;;;;;;3.22;0.90;;;;;;;18.97;40.59;97933.86;1695820;84;21017;-41
2022/09/16 14:14:16;;;;;;;4.08;0.68;;;;;;;18.50;41.52;97934.59;1696109;84;21156;-41
2022/09/16 14:16:44;;;;;;;2.70;0.50;;;;;;;18.09;44.00;97948.41;1695572;84;21039;-42
2022/09/16 14:19:26;;;;;;;1.40;0.60;;;;;;;17.71;44.71;97940.84;1693260;85;21514;-40
2022/09/16 14:22:17;;;;;;;5.70;0.72;;;;;;;17.36;44.89;97933.95;1664611;85;21571;-42
2022/09/16 14:24:45;;;;;;;4.42;0.47;;;;;;;17.39;45.21;97932.28;1692941;85;20971;-43
2022/09/16 14:27:27;;;;;;;2.30;0.60;;;;;;;17.30;46.23;97919.50;1692248;85;21003;-39
2022/09/16 14:30:04;;;;;;;2.85;0.70;;;;;;;17.25;46.85;97922.63;1678190;85;21088;-57
2022/09/16 14:32:33;;;;;;;1.70;0.80;;;;;;;17.11;48.01;97924.55;1690956;85;21044;-42
2022/09/16 14:35:09;;;;;;;1.17;0.70;;;;;;;17.08;45.34;97922.20;1692820;85;20988;-41
2022/09/16 14:37:38;;;;;;;1.05;0.72;;;;;;;16.80;45.88;97915.75;1725072;83;21406;-38
2022/09/16 14:40:11;;;;;;;1.30;0.80;;;;;;;16.80;46.48;97914.42;1708274;84;20968;-42
2022/09/16 14:42:49;;;;;;;2.83;0.80;;;;;;;16.86;46.49;97916.50;1706343;82;20960;-40
2022/09/16 14:45:16;;;;;;;2.47;1.05;;;;;;;16.96;46.92;97911.56;1736491;82;20968;-40
2022/09/16 14:47:43;;;;;;;2.05;0.68;;;;;;;17.08;46.49;97911.59;1737920;82;21028;-41
2022/09/16 14:50:21;;;;;;;1.80;0.80;;;;;;;17.11;46.18;97905.96;1737224;82;21028;-43
2022/09/16 14:53:04;;;;;;;2.25;0.88;;;;;;;17.10;46.71;97910.10;1737474;82;21051;-43
2022/09/16 14:55:36;;;;;;;2.67;0.85;;;;;;;17.07;46.67;97915.25;1737598;82;21016;-41
2022/09/16 14:58:03;;;;;;;8.23;1.00;;;;;;;17.03;47.01;97907.27;1736623;82;21036;-42
2022/09/16 15:00:36;;;;;;;1.37;0.85;;;;;;;16.95;48.37;97904.57;1738183;82;21036;-42
2022/09/16 15:03:16;;;;;;;3.25;1.10;;;;;;;16.96;47.74;97897.78;1737537;82;21059;-42
2022/09/16 15:05:45;;;;;;;3.05;1.05;;;;;;;16.98;47.57;97905.59;1737946;82;21058;-43
2022/09/16 15:08:23;;;;;;;2.60;0.88;;;;;;;16.98;47.83;97904.26;1736648;82;20996;-43
2022/09/16 15:10:57;;;;;;;5.28;0.93;;;;;;;17.02;48.57;97900.28;1730649;83;21032;-42
2022/09/16 15:13:38;;;;;;;3.60;0.98;;;;;;;16.88;48.89;97896.40;1733540;82;21082;-41
2022/09/16 15:16:17;;;;;;;1.67;0.80;;;;;;;16.98;48.01;97901.60;1734144;82;21368;-42
2022/09/16 15:18:59;;;;;;;1.95;1.10;;;;;;;16.88;48.35;97897.72;1733944;83;21087;-42
2022/09/16 15:21:32;;;;;;;2.45;1.00;;;;;;;16.80;49.32;97898.50;1734405;82;21027;-42
2022/09/16 15:24:02;;;;;;;3.42;0.90;;;;;;;16.79;49.14;97892.87;1686689;83;21021;-43
2022/09/16 15:26:44;;;;;;;1.67;0.85;;;;;;;16.69;49.56;97896.94;1747708;81;21046;-43
2022/09/16 15:29:25;;;;;;;1.20;0.90;;;;;;;16.65;49.33;97889.47;1747486;82;21547;-42
2022/09/16 15:31:51;;;;;;;1.77;0.90;;;;;;;16.61;49.62;97888.13;1746572;82;21059;-43
2022/09/16 15:34:21;;;;;;;4.10;1.05;;;;;;;16.49;50.68;97885.72;1747142;80;21019;-43
2022/09/16 15:36:54;;;;;;;4.67;1.10;;;;;;;16.42;50.73;97889.98;1747584;82;21028;-43
2022/09/16 15:39:37;;;;;;;3.00;1.10;;;;;;;16.48;50.79;97877.91;1746396;81;21028;-42
2022/09/16 15:42:10;;;;;;;2.75;1.02;;;;;;;16.48;51.86;97876.11;1745458;82;21556;-41
2022/09/16 15:44:43;;;;;;;1.77;1.20;;;;;;;16.56;51.14;97877.15;1747253;81;21481;-42
2022/09/16 15:47:20;;;;;;;3.50;0.98;;;;;;;16.47;52.05;97877.09;1747676;82;21330;-43
2022/09/16 15:49:51;;;;;;;3.95;0.80;;;;;;;16.40;52.11;97880.03;1743594;82;21062;-43
2022/09/16 15:52:18;;;;;;;2.15;1.10;;;;;;;16.33;52.49;97888.27;1746284;82;21051;-41
2022/09/16 15:54:52;;;;;;;3.03;1.10;;;;;;;16.17;52.78;97869.13;1747079;82;21010;-44
2022/09/16 15:57:40;;;;;;;2.62;1.27;;;;;;;16.16;52.41;97874.07;1780156;80;20971;-42
2022/09/16 16:00:11;;;;;;;1.42;1.22;;;;;;;16.10;52.90;97875.53;1785800;80;21508;-42
2022/09/16 16:02:46;;;;;;;3.05;1.55;;;;;;;16.00;53.33;97881.41;1786426;80;21159;-42
2022/09/16 16:05:20;;;;;;;2.87;1.50;;;;;;;15.95;53.65;97883.68;1786054;80;21011;-41
2022/09/16 16:07:53;;;;;;;5.72;1.47;;;;;;;15.87;54.00;97874.34;1784485;80;21075;-43
2022/09/16 16:10:23;;;;;;;2.42;1.30;;;;;;;15.83;54.31;97876.97;1777687;81;21019;-41
2022/09/16 16:12:53;;;;;;;2.42;1.40;;;;;;;15.73;55.92;97877.86;1777959;81;21023;-42
2022/09/16 16:15:36;;;;;;;4.62;1.20;;;;;;;15.67;56.33;97862.55;1778037;81;20968;-41
2022/09/16 16:18:06;;;;;;;3.42;1.20;;;;;;;15.68;55.12;97864.70;1777809;81;20999;-42
2022/09/16 16:20:35;;;;;;;3.02;1.02;;;;;;;15.61;55.84;97844.62;1778359;81;21046;-42
2022/09/16 16:23:02;;;;;;;1.60;1.20;;;;;;;15.52;56.46;97853.48;1778147;80;20995;-40
2022/09/16 16:25:28;;;;;;;2.92;1.90;;;;;;;15.48;56.92;97853.42;1777736;81;20983;-41
2022/09/16 16:27:54;;;;;;;3.27;1.20;;;;;;;15.46;56.66;97855.39;1778143;81;21039;-49
2022/09/16 16:30:20;;;;;;;3.77;1.32;;;;;;;15.36;58.06;97860.77;1778199;81;20979;-41
2022/09/16 16:32:46;;;;;;;2.47;1.25;;;;;;;15.29;59.67;97867.64;1773586;80;20967;-41
2022/09/16 16:35:12;;;;;;;4.00;1.57;;;;;;;15.23;58.05;97867.75;1762733;80;21038;-41
2022/09/16 16:37:38;;;;;;;4.67;1.55;;;;;;;15.15;58.85;97874.27;1762616;81;21500;-40
2022/09/16 16:40:06;;;;;;;3.50;1.87;;;;;;;15.09;59.07;97866.94;1762943;80;20983;-41
2022/09/16 16:42:32;;;;;;;;;;;;;;;14.95;60.55;97869.11;1765674;81;20971;-42
2022/09/16 16:44:58;;;;;;;3.50;1.50;;;;;;;14.95;61.67;97872.22;1763159;81;20137;-42
2022/09/16 16:47:23;;;;;;;4.58;1.72;;;;;;;14.91;60.26;97867.71;1762320;81;20999;-42
2022/09/16 16:49:50;;;;;;;3.30;1.65;;;;;;;14.89;60.31;97872.32;1762779;81;20994;-42
2022/09/16 16:52:16;;;;;;;6.65;1.80;;;;;;;14.82;61.38;97871.24;1762729;80;20967;-41
2022/09/16 16:54:42;;;;;;;5.92;1.92;;;;;;;14.76;61.49;97871.34;1762690;81;21027;-41
2022/09/16 16:57:09;;;;;;;3.55;1.62;;;;;;;14.72;62.32;97869.15;1762905;81;20943;-42
2022/09/16 16:59:35;;;;;;;2.85;1.60;;;;;;;14.74;61.23;97876.45;1763297;81;21785;-42
2022/09/16 17:02:03;;;;;;;8.35;1.80;;;;;;;14.69;62.62;97880.84;1763200;81;21562;-43
2022/09/16 17:04:29;;;;;;;5.80;1.60;;;;;;;14.61;63.97;97875.92;1763316;81;21005;-42
2022/09/16 17:06:56;;;;;;;2.65;1.50;;;;;;;14.58;62.36;97875.73;1763298;81;20982;-42
2022/09/16 17:09:23;;;;;;;3.30;1.75;;;;;;;14.52;62.66;97872.33;1768974;81;21460;-43
2022/09/16 17:11:57;;;;;;;7.12;2.15;;;;;;;14.45;63.59;97878.67;1774532;79;20983;-42
2022/09/16 17:14:29;;;;;;;3.20;1.80;;;;;;;14.41;64.03;97882.59;1774232;80;21037;-42
2022/09/16 17:16:55;;;;;;;4.00;2.00;;;;;;;14.31;66.10;97887.06;1774487;79;21013;-43
2022/09/16 17:19:23;;;;;;;8.48;2.72;;;;;;;14.26;64.11;97885.33;1774344;81;21026;-44
2022/09/16 17:21:51;;;;;;;7.08;1.80;;;;;;;14.16;64.76;97886.19;1774293;81;21468;-42
2022/09/16 17:24:18;;;;;;;2.10;1.40;;;;;;;14.16;63.76;97888.83;1774163;81;20983;-42
2022/09/16 17:26:45;;;;;;;6.70;1.53;;;;;;;14.08;65.06;97888.72;1774508;81;20975;-42
2022/09/16 17:29:11;;;;;;;5.13;1.50;;;;;;;14.02;63.64;97891.91;1774552;81;20998;-42
2022/09/16 17:31:38;;;;;;;3.30;1.55;;;;;;;13.91;64.80;97896.02;1747919;81;21181;-42
2022/09/16 17:34:08;;;;;;;4.67;1.42;;;;;;;13.94;63.51;97898.39;1771760;81;21043;-42
2022/09/16 17:36:39;;;;;;;2.20;1.85;;;;;;;13.93;63.19;97897.54;1767019;81;21633;-42
2022/09/16 17:39:08;;;;;;;1.70;1.60;;;;;;;13.87;63.63;97895.96;1767143;81;21460;-43
2022/09/16 17:41:34;;;;;;;2.08;1.60;;;;;;;13.82;64.41;97909.58;1767003;81;20947;-42
2022/09/16 17:44:06;;;;;;;3.50;1.57;;;;;;;13.69;65.51;97907.22;1766917;81;21003;-43
2022/09/16 17:46:33;;;;;;;2.77;1.70;;;;;;;13.72;63.72;97902.16;1765960;81;21022;-43
2022/09/16 17:49:05;;;;;;;3.43;1.40;;;;;;;13.62;64.20;97904.31;1767220;81;21003;-43
2022/09/16 17:51:33;;;;;;;2.17;1.07;;;;;;;13.62;64.20;97904.31;1765422;81;21006;-43
2022/09/16 17:54:00;;;;;;;1.85;1.20;;;;;;;13.61;64.25;97907.09;1736506;81;21066;-43
2022/09/16 17:56:26;;;;;;;1.40;1.15;;;;;;;13.57;63.39;97908.31;1765883;81;21638;-42
2022/09/16 17:58:53;;;;;;;2.52;1.22;;;;;;;13.43;64.15;97902.47;1766683;81;21061;-43
2022/09/16 18:01:23;;;;;;;4.37;1.35;;;;;;;13.40;64.33;97902.73;1766966;81;20986;-42
2022/09/16 18:03:52;;;;;;;4.42;1.42;;;;;;;13.35;64.92;97901.02;1765795;81;21547;-43
2022/09/16 18:06:27;;;;;;;1.85;1.00;;;;;;;13.33;65.13;97898.14;1766204;81;21026;-41
2022/09/16 18:08:54;;;;;;;1.27;0.85;;;;;;;13.29;64.65;97902.83;1763204;81;21110;-41
2022/09/16 18:11:21;;;;;;;3.25;1.15;;;;;;;13.23;65.40;97902.89;1753870;82;21062;-41
2022/09/16 18:13:53;;;;;;;2.22;1.30;;;;;;;13.20;65.02;97902.32;1753893;82;21452;-41
2022/09/16 18:16:20;;;;;;;2.02;1.35;;;;;;;13.15;65.49;97904.06;1753782;82;21537;-43
2022/09/16 18:18:53;;;;;;;2.08;1.17;;;;;;;13.08;65.58;97904.25;1753888;82;21417;-41
2022/09/16 18:21:20;;;;;;;3.37;1.20;;;;;;;12.98;66.85;97908.16;1753690;81;21523;-41
2022/09/16 18:23:50;;;;;;;2.50;1.32;;;;;;;12.93;67.03;97901.12;1753792;82;20987;-41
2022/09/16 18:26:17;;;;;;;2.98;1.40;;;;;;;12.91;66.48;97900.92;1753665;81;21050;-41
2022/09/16 18:28:45;;;;;;;3.40;1.27;;;;;;;12.89;66.87;97905.00;1753851;82;21019;-41
2022/09/16 18:31:15;;;;;;;1.62;1.12;;;;;;;12.86;67.25;97900.84;1753949;82;21022;-41
2022/09/16 18:33:41;;;;;;;1.60;1.50;;;;;;;12.86;67.64;97906.58;1752522;82;21430;-42
2022/09/16 18:36:13;;;;;;;3.52;1.20;;;;;;;12.84;67.53;97909.84;1753694;82;21560;-42
2022/09/16 18:38:42;;;;;;;1.82;1.00;;;;;;;12.83;67.66;97903.73;1753954;82;21014;-42
2022/09/16 18:41:18;;;;;;;1.55;1.10;;;;;;;12.84;67.53;97907.20;1753897;82;21015;-42
2022/09/16 18:43:45;;;;;;;2.20;1.40;;;;;;;12.80;68.17;97910.59;1753711;82;20987;-42
2022/09/16 18:46:24;;;;;;;2.08;1.12;;;;;;;12.82;67.80;97915.73;1753705;82;20952;-42
2022/09/16 18:48:51;;;;;;;3.87;1.60;;;;;;;12.80;67.66;97915.04;1753668;81;21480;-42
2022/09/16 18:51:21;;;;;;;1.62;1.25;;;;;;;12.77;67.97;97912.66;1753820;81;21023;-42
2022/09/16 18:53:50;;;;;;;2.30;1.20;;;;;;;12.76;68.30;97918.92;1753763;82;21483;-43
2022/09/16 18:56:20;;;;;;;1.20;1.02;;;;;;;12.73;68.50;97913.90;1747318;81;20940;-43
2022/09/16 18:58:47;;;;;;;4.83;1.12;;;;;;;12.70;68.29;97914.16;1739938;82;20956;-43
2022/09/16 19:01:26;;;;;;;1.45;1.02;;;;;;;12.63;68.71;97909.41;1739843;82;20983;-41
2022/09/16 19:03:54;;;;;;;2.60;1.12;;;;;;;12.62;68.61;97910.86;1739743;82;20948;-41
2022/09/16 19:06:21;;;;;;;1.30;1.20;;;;;;;12.60;68.72;97909.67;1739730;82;21000;-44
2022/09/16 19:08:47;;;;;;;2.60;1.27;;;;;;;12.62;68.19;97910.86;1740692;81;21023;-41
2022/09/16 19:11:15;;;;;;;2.37;1.40;;;;;;;12.57;68.17;97907.31;1753716;82;20987;-43
2022/09/16 19:13:42;;;;;;;3.50;1.72;;;;;;;12.53;68.64;97904.56;1753828;82;21460;-42
2022/09/16 19:16:09;;;;;;;1.90;1.47;;;;;;;12.53;68.33;97911.65;1753846;82;21034;-43
2022/09/16 19:18:35;;;;;;;2.45;1.52;;;;;;;12.49;68.81;97905.31;1753880;82;21034;-42
2022/09/16 19:21:01;;;;;;;3.35;1.82;;;;;;;12.41;69.47;97913.05;1753761;81;21030;-42
2022/09/16 19:23:27;;;;;;;2.60;1.70;;;;;;;12.35;70.15;97910.95;1753666;80;20999;-42
2022/09/16 19:25:53;;;;;;;3.17;1.70;;;;;;;12.32;69.62;97911.20;1753674;82;21026;-43
2022/09/16 19:28:19;;;;;;;3.05;1.62;;;;;;;12.25;70.00;97908.23;1753651;82;21010;-43
2022/09/16 19:30:45;;;;;;;5.45;1.82;;;;;;;12.22;70.20;97905.84;1753721;82;20990;-43
2022/09/16 19:33:11;;;;;;;3.15;2.00;;;;;;;12.20;70.75;97909.10;1753740;82;20960;-42
2022/09/16 19:35:37;;;;;;;4.58;2.33;;;;;;;12.16;70.85;97906.38;1753663;82;20980;-42
2022/09/16 19:38:03;;;;;;;3.42;2.17;;;;;;;12.14;70.83;97912.27;1753669;82;21042;-43
2022/09/16 19:40:29;;;;;;;2.60;2.10;;;;;;;12.10;71.12;97906.91;1753661;80;20995;-43
2022/09/16 19:42:55;;;;;;;3.47;2.30;;;;;;;12.07;71.57;97902.70;1753667;82;20994;-43
2022/09/16 19:45:22;;;;;;;4.42;2.60;;;;;;;12.06;70.69;97909.41;1753613;80;21022;-42
2022/09/16 19:47:48;;;;;;;3.80;2.30;;;;;;;12.02;71.32;97903.56;1754040;81;20963;-43
2022/09/16 19:50:14;;;;;;;7.28;2.90;;;;;;;12.02;71.23;97908.01;1753632;81;21109;-42
2022/09/16 19:52:40;;;;;;;4.85;3.20;;;;;;;11.97;71.75;97898.33;1753623;82;20963;-43
2022/09/16 19:55:10;;;;;;;5.45;2.70;;;;;;;11.88;71.76;97899.44;1753619;81;21035;-43
2022/09/16 19:57:36;;;;;;;5.40;2.98;;;;;;;11.90;71.49;97901.48;1753204;80;20971;-43
2022/09/16 20:00:04;;;;;;;4.95;2.83;;;;;;;11.82;73.11;97897.29;1753455;81;20967;-42
2022/09/16 20:02:30;;;;;;;5.85;3.35;;;;;;;11.80;72.55;97900.53;1753524;81;20971;-43
2022/09/16 20:04:56;;;;;;;6.17;2.37;;;;;;;11.83;72.68;97904.73;1753450;81;21027;-50
2022/09/16 20:07:22;;;;;;;5.17;2.42;;;;;;;11.81;72.60;97898.27;1753405;82;20952;-42
2022/09/16 20:09:47;;;;;;;5.75;2.62;;;;;;;11.77;73.01;97896.00;1749375;82;21024;-42
2022/09/16 20:12:14;;;;;;;3.92;2.65;;;;;;;11.78;71.78;97895.88;1742009;82;21039;-42
2022/09/16 20:14:40;;;;;;;7.42;2.83;;;;;;;11.72;72.32;97902.98;1742133;82;21007;-42
2022/09/16 20:17:06;;;;;;;4.60;2.62;;;;;;;11.68;72.98;97905.52;1742014;82;20980;-42
2022/09/16 20:19:32;;;;;;;3.20;2.00;;;;;;;11.65;73.44;97903.95;1742101;82;21504;-42
2022/09/16 20:21:58;;;;;;;5.65;2.75;;;;;;;11.64;73.70;97907.56;1742063;81;21653;-40
2022/09/16 20:24:24;;;;;;;5.62;2.40;;;;;;;11.68;73.33;97910.78;1742068;82;21011;-41
2022/09/16 20:26:53;;;;;;;2.92;2.10;;;;;;;11.65;73.42;97909.71;1742011;82;20967;-42
2022/09/16 20:29:20;;;;;;;4.17;2.60;;;;;;;11.62;73.48;97911.27;1742055;82;21465;-41
2022/09/16 20:31:48;;;;;;;6.85;3.75;;;;;;;11.61;73.33;97905.66;1742083;82;20975;-42
2022/09/16 20:34:15;;;;;;;7.47;2.62;;;;;;;11.61;73.56;97901.71;1742023;82;21512;-41
2022/09/16 20:36:43;;;;;;;7.37;3.12;;;;;;;11.60;73.28;97909.24;1742171;82;21023;-41
2022/09/16 20:39:09;;;;;;;7.28;3.25;;;;;;;11.56;73.62;97908.66;1742160;82;21022;-41
2022/09/16 20:41:38;;;;;;;4.95;3.22;;;;;;;11.56;73.59;97913.92;1742357;82;20980;-42
2022/09/16 20:44:06;;;;;;;6.00;3.47;;;;;;;11.52;73.86;97913.34;1741893;82;21530;-41
2022/09/16 20:46:36;;;;;;;6.75;3.45;;;;;;;11.49;74.68;97918.84;1742211;82;21027;-41
2022/09/16 20:49:06;;;;;;;7.75;3.62;;;;;;;11.50;74.32;97918.38;1742026;81;20960;-42
2022/09/16 20:51:34;;;;;;;6.00;3.22;;;;;;;11.46;74.60;97929.64;1742050;82;20991;-42
2022/09/16 20:54:04;;;;;;;4.75;3.45;;;;;;;11.44;74.18;97921.03;1742083;82;20968;-42
2022/09/16 20:56:31;;;;;;;4.28;3.50;;;;;;;11.41;74.62;97917.32;1742064;82;20972;-42
2022/09/16 20:58:58;;;;;;;4.35;3.33;;;;;;;11.31;75.60;97920.33;1720611;82;21509;-42
2022/09/16 21:01:30;;;;;;;13.33;3.57;;;;;;;11.32;74.24;97917.58;1742296;82;21469;-42
2022/09/16 21:04:00;;;;;;;4.53;3.17;;;;;;;11.30;75.26;97912.92;1742148;82;21042;-42
2022/09/16 21:06:28;;;;;;;7.15;3.60;;;;;;;11.31;74.83;97920.33;1741969;82;21505;-42
2022/09/16 21:09:01;;;;;;;4.45;3.08;;;;;;;11.29;74.40;97919.62;1742144;82;21035;-41
2022/09/16 21:11:28;;;;;;;7.08;3.62;;;;;;;11.29;75.01;97915.67;1741563;82;21431;-42
2022/09/16 21:13:58;;;;;;;7.62;3.95;;;;;;;11.25;75.84;97912.94;1742145;81;20983;-42
2022/09/16 21:16:25;;;;;;;6.42;3.42;;;;;;;11.22;75.95;97910.05;1742064;82;20983;-42
2022/09/16 21:18:56;;;;;;;8.35;3.42;;;;;;;11.22;75.54;97921.06;1742013;82;21023;-42
2022/09/16 21:21:24;;;;;;;5.70;3.65;;;;;;;11.19;75.21;97914.72;1742061;82;21028;-42
2022/09/16 21:23:51;;;;;;;7.85;3.33;;;;;;;11.16;75.46;97917.63;1742090;82;21044;-41
2022/09/16 21:26:19;;;;;;;;;;;;;;;11.11;75.90;97921.92;1744703;82;20961;-42
2022/09/16 21:28:52;;;;;;;6.92;3.30;;;;;;;11.02;76.75;97916.07;1742017;82;20107;-42
2022/09/16 21:31:17;;;;;;;4.25;2.65;;;;;;;11.07;76.00;97922.64;1742212;82;20996;-42
2022/09/16 21:33:44;;;;;;;4.80;3.40;;;;;;;11.02;76.45;97926.59;1742165;82;21039;-42
2022/09/16 21:36:12;;;;;;;4.83;3.40;;;;;;;10.96;76.84;97920.03;1742203;82;20995;-41
2022/09/16 21:38:40;;;;;;;6.50;3.22;;;;;;;10.94;76.66;97925.89;1742201;82;20972;-41
2022/09/16 21:41:11;;;;;;;;;;;;;;;10.91;76.76;97920.41;1744825;82;20967;-47
2022/09/16 21:43:50;;;;;;;3.37;2.90;;;;;;;10.85;78.02;97926.13;1741513;82;20106;-41
2022/09/16 21:46:18;;;;;;;5.83;3.07;;;;;;;10.83;77.08;97926.73;1741866;82;21016;-42
2022/09/16 21:48:46;;;;;;;5.97;3.05;;;;;;;10.82;77.08;97928.16;1741674;82;20987;-41
2022/09/16 21:51:15;;;;;;;3.85;2.72;;;;;;;10.76;77.71;97927.67;1742340;82;21525;-42
2022/09/16 21:53:42;;;;;;;3.33;2.55;;;;;;;10.80;77.03;97921.70;1742150;82;21480;-41
2022/09/16 21:56:15;;;;;;;5.22;3.02;;;;;;;10.81;76.76;97926.50;1742150;82;21020;-41
2022/09/16 21:58:42;;;;;;;5.83;2.60;;;;;;;10.78;77.32;97930.67;1742348;82;21039;-41
2022/09/16 22:01:13;;;;;;;2.70;2.42;;;;;;;10.66;78.23;97925.42;1742421;82;21026;-41
2022/09/16 22:03:40;;;;;;;3.95;2.62;;;;;;;10.69;78.36;97926.48;1721377;82;20940;-41
2022/09/16 22:06:08;;;;;;;4.78;3.20;;;;;;;10.68;77.74;97918.25;1742167;82;21469;-41
2022/09/16 22:08:35;;;;;;;7.08;2.50;;;;;;;10.67;77.96;97925.77;1742222;82;20988;-41
2022/09/16 22:11:04;;;;;;;6.72;2.72;;;;;;;10.68;77.86;97919.56;1749442;82;21003;-41
2022/09/16 22:13:31;;;;;;;5.65;2.40;;;;;;;10.71;76.90;97919.33;1752518;82;20952;-41
2022/09/16 22:15:58;;;;;;;7.85;2.62;;;;;;;10.69;77.31;97916.45;1753758;82;21456;-41
2022/09/16 22:18:26;;;;;;;3.65;2.47;;;;;;;10.69;77.70;97912.02;1753719;81;20976;-41
2022/09/16 22:20:53;;;;;;;4.37;2.62;;;;;;;10.67;77.27;97916.56;1753540;81;21891;-41
2022/09/16 22:23:19;;;;;;;4.05;2.55;;;;;;;10.61;78.29;97915.73;1753547;81;21522;-41
2022/09/16 22:25:45;;;;;;;5.53;2.25;;;;;;;10.57;78.38;97912.99;1753509;82;20974;-41
2022/09/16 22:28:12;;;;;;;4.25;2.20;;;;;;;10.53;78.70;97909.77;1751274;80;20952;-41
2022/09/16 22:30:38;;;;;;;2.80;2.20;;;;;;;10.54;78.78;97909.27;1745085;81;20964;-41
2022/09/16 22:33:04;;;;;;;5.28;2.50;;;;;;;10.56;77.92;97906.88;1745086;81;21008;-42
2022/09/16 22:35:29;;;;;;;3.65;2.37;;;;;;;10.61;77.44;97906.53;1745099;82;21484;-42
2022/09/16 22:37:55;;;;;;;2.62;2.20;;;;;;;10.62;76.79;97911.30;1745018;82;21451;-42
2022/09/16 22:40:21;;;;;;;6.58;2.10;;;;;;;10.57;77.72;97914.30;1745096;81;21039;-42
2022/09/16 22:42:47;;;;;;;3.95;2.20;;;;;;;10.59;77.73;97913.70;1745006;82;21026;-42
2022/09/16 22:45:13;;;;;;;4.75;1.90;;;;;;;10.59;78.37;97913.70;1745014;81;21018;-45
2022/09/16 22:47:39;;;;;;;2.63;1.97;;;;;;;10.52;79.05;97910.70;1745264;81;21512;-41
2022/09/16 22:50:06;;;;;;;3.65;2.17;;;;;;;10.58;78.44;97912.02;1745059;81;20987;-41
2022/09/16 22:52:32;;;;;;;3.07;1.57;;;;;;;10.59;77.74;97904.96;1745246;81;21511;-42
2022/09/16 22:54:57;;;;;;;3.40;1.90;;;;;;;10.54;78.65;97907.96;1744949;81;20992;-42
2022/09/16 22:57:23;;;;;;;5.83;2.08;;;;;;;10.53;78.52;97901.88;1744986;81;21010;-41
2022/09/16 22:59:49;;;;;;;3.12;1.98;;;;;;;10.52;78.66;97904.13;1744888;82;21046;-42
2022/09/16 23:02:15;;;;;;;8.50;2.40;;;;;;;10.54;78.31;97905.33;1744910;82;20980;-42
2022/09/16 23:04:41;;;;;;;10.30;2.40;;;;;;;10.50;78.36;97902.59;1744932;82;20976;-42
2022/09/16 23:07:09;;;;;;;4.40;2.15;;;;;;;10.54;78.15;97900.08;1744889;82;21351;-42
2022/09/16 23:09:36;;;;;;;3.17;1.98;;;;;;;10.41;79.90;97908.08;1745010;82;20976;-42
2022/09/16 23:12:03;;;;;;;6.70;2.33;;;;;;;10.43;79.95;97908.78;1741113;82;21466;-42
2022/09/16 23:14:30;;;;;;;3.60;2.20;;;;;;;10.28;81.41;97905.52;1741914;81;21456;-42
2022/09/16 23:16:56;;;;;;;4.15;2.37;;;;;;;10.38;79.79;97906.50;1742019;82;20972;-42
2022/09/16 23:19:22;;;;;;;5.58;2.55;;;;;;;10.41;79.81;97905.93;1741765;82;21024;-41
2022/09/16 23:21:49;;;;;;;3.40;2.40;;;;;;;10.37;79.98;97898.27;1741695;81;21027;-42
2022/09/16 23:24:19;;;;;;;2.83;2.10;;;;;;;10.34;80.50;97891.92;1741746;82;20968;-42
2022/09/16 23:26:46;;;;;;;2.52;2.33;;;;;;;10.41;80.47;97900.67;1741870;82;20975;-42
2022/09/16 23:29:14;;;;;;;2.85;2.40;;;;;;;10.42;79.81;97898.39;1741871;82;20999;-42
2022/09/16 23:31:42;;;;;;;2.52;2.33;;;;;;;10.41;80.45;97895.42;1741881;81;20980;-42
2022/09/16 23:34:19;;;;;;;4.12;2.70;;;;;;;10.38;81.26;97890.73;1741776;82;20980;-42
2022/09/16 23:36:45;;;;;;;5.75;3.62;;;;;;;10.41;80.59;97898.05;1741730;82;20966;-42
2022/09/16 23:39:13;;;;;;;5.60;2.67;;;;;;;10.37;80.85;97895.64;1741788;82;21828;-42
2022/09/16 23:41:41;;;;;;;5.45;2.52;;;;;;;10.36;80.57;97887.88;1741724;82;21855;-42
2022/09/16 23:44:08;;;;;;;3.25;2.92;;;;;;;10.40;80.70;97895.05;1741845;82;21015;-42
2022/09/16 23:46:34;;;;;;;4.05;3.00;;;;;;;10.36;80.96;97891.81;1741862;82;21020;-42
2022/09/16 23:49:00;;;;;;;4.67;2.90;;;;;;;10.37;80.81;97885.62;1741693;82;21485;-42
2022/09/16 23:51:27;;;;;;;3.60;3.05;;;;;;;10.36;80.56;97891.33;1741727;82;20968;-42
2022/09/16 23:53:53;;;;;;;;;;;;;;;10.34;80.91;97890.61;1744334;82;21299;-42
2022/09/16 23:56:20;;;;;;;5.60;3.02;;;;;;;10.32;81.25;97895.64;1741752;82;20371;-42
2022/09/16 23:58:48;;;;;;;6.50;3.10;;;;;;;10.29;80.78;97899.29;1741833;82;21461;-42
